sensor_id;sensor_type;location;lat;lon;timestamp;P1;P2;P0
43479;PMS5003;29067;35.492;-97.520;2023-03-04T00:02:04;1;1;
43479;PMS5003;29067;35.492;-97.520;2023-03-04T00:04:32;1;0;
43479;PMS5003;29067;35.492;-97.520;2023-03-04T00:07:00;0;0;
43479;PMS5003;29067;35.492;-97.520;2023-03-04T00:09:28;1;1;
43479;PMS5003;29067;35.492;-97.520;2023-03-04T00:11:56;3;2;
43479;PMS5003;29067;35.492;-97.520;2023-03-04T00:14:24;3;2;
43479;PMS5003;29067;35.492;-97.520;2023-03-04T00:16:53;2;2;
43479;PMS5003;29067;35.492;-97.520;2023-03-04T00:19:20;0;0;
43479;PMS5003;29067;35.492;-97.520;2023-03-04T00:21:49;9;7;
43479;PMS5003;29067;35.492;-97.520;2023-03-04T00:24:17;15;14;
43479;PMS5003;29067;35.492;-97.520;2023-03-04T00:26:45;65;64;
43479;PMS5003;29067;35.492;-97.520;2023-03-04T00:29:13;39;36;
43479;PMS5003;29067;35.492;-97.520;2023-03-04T00:31:46;32;31;
43479;PMS5003;29067;35.492;-97.520;2023-03-04T00:34:15;24;20;
43479;PMS5003;29067;35.492;-97.520;2023-03-04T00:36:44;17;16;
43479;PMS5003;29067;35.492;-97.520;2023-03-04T00:39:13;11;10;
43479;PMS5003;29067;35.492;-97.520;2023-03-04T00:41:41;51;51;
43479;PMS5003;29067;35.492;-97.520;2023-03-04T00:44:09;11;6;
43479;PMS5003;29067;35.492;-97.520;2023-03-04T00:46:44;24;23;
43479;PMS5003;29067;35.492;-97.520;2023-03-04T00:49:12;12;11;
43479;PMS5003;29067;35.492;-97.520;2023-03-04T00:51:42;43;42;
43479;PMS5003;29067;35.492;-97.520;2023-03-04T00:54:15;11;6;
43479;PMS5003;29067;35.492;-97.520;2023-03-04T00:56:44;26;23;
43479;PMS5003;29067;35.492;-97.520;2023-03-04T00:59:13;13;10;
43479;PMS5003;29067;35.492;-97.520;2023-03-04T01:01:41;51;48;
43479;PMS5003;29067;35.492;-97.520;2023-03-04T01:04:10;2;1;
43479;PMS5003;29067;35.492;-97.520;2023-03-04T01:06:38;2;2;
43479;PMS5003;29067;35.492;-97.520;2023-03-04T01:09:06;3;3;
43479;PMS5003;29067;35.492;-97.520;2023-03-04T01:11:35;2;2;
43479;PMS5003;29067;35.492;-97.520;2023-03-04T01:14:02;3;3;
43479;PMS5003;29067;35.492;-97.520;2023-03-04T01:16:30;5;4;
43479;PMS5003;29067;35.492;-97.520;2023-03-04T01:18:58;4;3;
43479;PMS5003;29067;35.492;-97.520;2023-03-04T01:21:26;2;2;
43479;PMS5003;29067;35.492;-97.520;2023-03-04T01:23:54;3;2;
43479;PMS5003;29067;35.492;-97.520;2023-03-04T01:26:22;3;3;
43479;PMS5003;29067;35.492;-97.520;2023-03-04T01:28:49;2;2;
43479;PMS5003;29067;35.492;-97.520;2023-03-04T01:31:18;2;2;
43479;PMS5003;29067;35.492;-97.520;2023-03-04T01:33:46;2;2;
43479;PMS5003;29067;35.492;-97.520;2023-03-04T01:36:14;1;1;
43479;PMS5003;29067;35.492;-97.520;2023-03-04T01:38:41;1;1;
43479;PMS5003;29067;35.492;-97.520;2023-03-04T01:41:10;1;1;
43479;PMS5003;29067;35.492;-97.520;2023-03-04T01:43:39;1;1;
43479;PMS5003;29067;35.492;-97.520;2023-03-04T01:46:08;1;1;
43479;PMS5003;29067;35.492;-97.520;2023-03-04T01:48:43;2;1;
43479;PMS5003;29067;35.492;-97.520;2023-03-04T01:51:12;1;1;
43479;PMS5003;29067;35.492;-97.520;2023-03-04T01:53:42;2;2;
43479;PMS5003;29067;35.492;-97.520;2023-03-04T01:56:14;2;1;
43479;PMS5003;29067;35.492;-97.520;2023-03-04T01:59:04;2;2;
43479;PMS5003;29067;35.492;-97.520;2023-03-04T02:01:35;4;3;
43479;PMS5003;29067;35.492;-97.520;2023-03-04T02:04:04;3;2;
43479;PMS5003;29067;35.492;-97.520;2023-03-04T02:06:33;2;2;
43479;PMS5003;29067;35.492;-97.520;2023-03-04T02:09:02;2;1;
43479;PMS5003;29067;35.492;-97.520;2023-03-04T02:11:30;3;2;
43479;PMS5003;29067;35.492;-97.520;2023-03-04T02:13:59;2;2;
43479;PMS5003;29067;35.492;-97.520;2023-03-04T02:16:27;1;1;
43479;PMS5003;29067;35.492;-97.520;2023-03-04T02:18:55;2;2;
43479;PMS5003;29067;35.492;-97.520;2023-03-04T02:21:24;2;2;
43479;PMS5003;29067;35.492;-97.520;2023-03-04T02:23:56;3;2;
43479;PMS5003;29067;35.492;-97.520;2023-03-04T02:26:32;3;3;
43479;PMS5003;29067;35.492;-97.520;2023-03-04T02:29:01;3;3;
43479;PMS5003;29067;35.492;-97.520;2023-03-04T02:31:32;4;4;
43479;PMS5003;29067;35.492;-97.520;2023-03-04T02:34:02;3;3;
43479;PMS5003;29067;35.492;-97.520;2023-03-04T02:36:38;16;16;
43479;PMS5003;29067;35.492;-97.520;2023-03-04T02:39:10;2;2;
43479;PMS5003;29067;35.492;-97.520;2023-03-04T02:41:51;3;2;
43479;PMS5003;29067;35.492;-97.520;2023-03-04T02:44:21;2;2;
43479;PMS5003;29067;35.492;-97.520;2023-03-04T02:46:51;3;2;
43479;PMS5003;29067;35.492;-97.520;2023-03-04T02:49:21;3;3;
43479;PMS5003;29067;35.492;-97.520;2023-03-04T02:51:52;3;2;
43479;PMS5003;29067;35.492;-97.520;2023-03-04T02:54:25;3;3;
43479;PMS5003;29067;35.492;-97.520;2023-03-04T02:56:57;2;2;
43479;PMS5003;29067;35.492;-97.520;2023-03-04T02:59:28;3;3;
43479;PMS5003;29067;35.492;-97.520;2023-03-04T03:01:56;3;3;
43479;PMS5003;29067;35.492;-97.520;2023-03-04T03:04:25;5;5;
43479;PMS5003;29067;35.492;-97.520;2023-03-04T03:06:58;5;5;
43479;PMS5003;29067;35.492;-97.520;2023-03-04T03:09:32;5;4;
43479;PMS5003;29067;35.492;-97.520;2023-03-04T03:12:00;4;4;
43479;PMS5003;29067;35.492;-97.520;2023-03-04T03:14:28;3;3;
43479;PMS5003;29067;35.492;-97.520;2023-03-04T03:16:56;3;3;
43479;PMS5003;29067;35.492;-97.520;2023-03-04T03:19:24;3;3;
43479;PMS5003;29067;35.492;-97.520;2023-03-04T03:21:52;3;3;
43479;PMS5003;29067;35.492;-97.520;2023-03-04T03:24:19;4;3;
43479;PMS5003;29067;35.492;-97.520;2023-03-04T03:26:47;5;5;
43479;PMS5003;29067;35.492;-97.520;2023-03-04T03:29:15;4;3;
43479;PMS5003;29067;35.492;-97.520;2023-03-04T03:31:43;5;5;
43479;PMS5003;29067;35.492;-97.520;2023-03-04T03:34:11;8;6;
43479;PMS5003;29067;35.492;-97.520;2023-03-04T03:36:44;8;6;
43479;PMS5003;29067;35.492;-97.520;2023-03-04T03:39:12;5;5;
43479;PMS5003;29067;35.492;-97.520;2023-03-04T03:41:40;6;4;
43479;PMS5003;29067;35.492;-97.520;2023-03-04T03:44:09;4;4;
43479;PMS5003;29067;35.492;-97.520;2023-03-04T03:46:37;4;4;
43479;PMS5003;29067;35.492;-97.520;2023-03-04T03:49:04;6;5;
43479;PMS5003;29067;35.492;-97.520;2023-03-04T03:51:32;5;4;
43479;PMS5003;29067;35.492;-97.520;2023-03-04T03:54:02;4;4;
43479;PMS5003;29067;35.492;-97.520;2023-03-04T03:56:31;5;5;
43479;PMS5003;29067;35.492;-97.520;2023-03-04T03:58:59;4;4;
43479;PMS5003;29067;35.492;-97.520;2023-03-04T04:01:31;3;3;
43479;PMS5003;29067;35.492;-97.520;2023-03-04T04:03:59;5;5;
43479;PMS5003;29067;35.492;-97.520;2023-03-04T04:06:27;4;4;
43479;PMS5003;29067;35.492;-97.520;2023-03-04T04:08:55;9;6;
43479;PMS5003;29067;35.492;-97.520;2023-03-04T04:11:23;5;5;
43479;PMS5003;29067;35.492;-97.520;2023-03-04T04:13:51;6;6;
43479;PMS5003;29067;35.492;-97.520;2023-03-04T04:16:20;5;5;
43479;PMS5003;29067;35.492;-97.520;2023-03-04T04:18:48;6;5;
43479;PMS5003;29067;35.492;-97.520;2023-03-04T04:21:16;9;7;
43479;PMS5003;29067;35.492;-97.520;2023-03-04T04:23:43;9;7;
43479;PMS5003;29067;35.492;-97.520;2023-03-04T04:26:12;6;6;
43479;PMS5003;29067;35.492;-97.520;2023-03-04T04:28:41;5;5;
43479;PMS5003;29067;35.492;-97.520;2023-03-04T04:31:09;6;5;
43479;PMS5003;29067;35.492;-97.520;2023-03-04T04:33:37;7;6;
43479;PMS5003;29067;35.492;-97.520;2023-03-04T04:36:12;5;5;
43479;PMS5003;29067;35.492;-97.520;2023-03-04T04:38:40;4;4;
43479;PMS5003;29067;35.492;-97.520;2023-03-04T04:41:13;5;4;
43479;PMS5003;29067;35.492;-97.520;2023-03-04T04:43:46;7;6;
43479;PMS5003;29067;35.492;-97.520;2023-03-04T04:46:14;5;5;
43479;PMS5003;29067;35.492;-97.520;2023-03-04T04:48:43;5;4;
43479;PMS5003;29067;35.492;-97.520;2023-03-04T04:51:11;4;4;
43479;PMS5003;29067;35.492;-97.520;2023-03-04T04:53:40;4;4;
43479;PMS5003;29067;35.492;-97.520;2023-03-04T04:56:10;4;4;
43479;PMS5003;29067;35.492;-97.520;2023-03-04T04:58:40;5;5;
43479;PMS5003;29067;35.492;-97.520;2023-03-04T05:01:09;4;4;
43479;PMS5003;29067;35.492;-97.520;2023-03-04T05:03:38;5;4;
43479;PMS5003;29067;35.492;-97.520;2023-03-04T05:06:07;10;9;
43479;PMS5003;29067;35.492;-97.520;2023-03-04T05:08:37;7;7;
43479;PMS5003;29067;35.492;-97.520;2023-03-04T05:11:05;5;5;
43479;PMS5003;29067;35.492;-97.520;2023-03-04T05:13:34;5;5;
43479;PMS5003;29067;35.492;-97.520;2023-03-04T05:16:03;4;4;
43479;PMS5003;29067;35.492;-97.520;2023-03-04T05:18:32;4;3;
43479;PMS5003;29067;35.492;-97.520;2023-03-04T05:21:00;3;3;
43479;PMS5003;29067;35.492;-97.520;2023-03-04T05:23:31;2;2;
43479;PMS5003;29067;35.492;-97.520;2023-03-04T05:26:01;5;3;
43479;PMS5003;29067;35.492;-97.520;2023-03-04T05:28:30;3;3;
43479;PMS5003;29067;35.492;-97.520;2023-03-04T05:30:59;3;3;
43479;PMS5003;29067;35.492;-97.520;2023-03-04T05:33:27;3;3;
43479;PMS5003;29067;35.492;-97.520;2023-03-04T05:35:55;2;2;
43479;PMS5003;29067;35.492;-97.520;2023-03-04T05:38:24;3;3;
43479;PMS5003;29067;35.492;-97.520;2023-03-04T05:40:55;2;2;
43479;PMS5003;29067;35.492;-97.520;2023-03-04T05:43:25;3;3;
43479;PMS5003;29067;35.492;-97.520;2023-03-04T05:45:54;3;3;
43479;PMS5003;29067;35.492;-97.520;2023-03-04T05:48:22;3;3;
43479;PMS5003;29067;35.492;-97.520;2023-03-04T05:50:52;3;3;
43479;PMS5003;29067;35.492;-97.520;2023-03-04T05:53:21;3;3;
43479;PMS5003;29067;35.492;-97.520;2023-03-04T05:55:50;4;4;
43479;PMS5003;29067;35.492;-97.520;2023-03-04T05:58:19;3;3;
43479;PMS5003;29067;35.492;-97.520;2023-03-04T06:00:48;2;2;
43479;PMS5003;29067;35.492;-97.520;2023-03-04T06:03:17;2;2;
43479;PMS5003;29067;35.492;-97.520;2023-03-04T06:05:46;5;5;
43479;PMS5003;29067;35.492;-97.520;2023-03-04T06:08:14;5;4;
43479;PMS5003;29067;35.492;-97.520;2023-03-04T06:10:42;4;4;
43479;PMS5003;29067;35.492;-97.520;2023-03-04T06:13:10;4;3;
43479;PMS5003;29067;35.492;-97.520;2023-03-04T06:15:39;3;3;
43479;PMS5003;29067;35.492;-97.520;2023-03-04T06:18:07;4;3;
43479;PMS5003;29067;35.492;-97.520;2023-03-04T06:20:35;5;4;
43479;PMS5003;29067;35.492;-97.520;2023-03-04T06:23:03;5;4;
43479;PMS5003;29067;35.492;-97.520;2023-03-04T06:25:32;4;4;
43479;PMS5003;29067;35.492;-97.520;2023-03-04T06:28:00;4;4;
43479;PMS5003;29067;35.492;-97.520;2023-03-04T06:30:28;4;4;
43479;PMS5003;29067;35.492;-97.520;2023-03-04T06:32:56;4;4;
43479;PMS5003;29067;35.492;-97.520;2023-03-04T06:35:24;4;4;
43479;PMS5003;29067;35.492;-97.520;2023-03-04T06:37:52;6;5;
43479;PMS5003;29067;35.492;-97.520;2023-03-04T06:40:19;2;2;
43479;PMS5003;29067;35.492;-97.520;2023-03-04T06:42:47;4;4;
43479;PMS5003;29067;35.492;-97.520;2023-03-04T06:45:15;4;4;
43479;PMS5003;29067;35.492;-97.520;2023-03-04T06:47:43;3;2;
43479;PMS5003;29067;35.492;-97.520;2023-03-04T06:50:11;3;2;
43479;PMS5003;29067;35.492;-97.520;2023-03-04T06:52:39;4;3;
43479;PMS5003;29067;35.492;-97.520;2023-03-04T06:55:07;2;2;
43479;PMS5003;29067;35.492;-97.520;2023-03-04T06:57:36;4;3;
43479;PMS5003;29067;35.492;-97.520;2023-03-04T07:00:10;4;4;
43479;PMS5003;29067;35.492;-97.520;2023-03-04T07:02:39;3;2;
43479;PMS5003;29067;35.492;-97.520;2023-03-04T07:05:07;5;4;
43479;PMS5003;29067;35.492;-97.520;2023-03-04T07:07:36;6;4;
43479;PMS5003;29067;35.492;-97.520;2023-03-04T07:10:04;2;2;
43479;PMS5003;29067;35.492;-97.520;2023-03-04T07:12:33;3;3;
43479;PMS5003;29067;35.492;-97.520;2023-03-04T07:15:01;4;3;
43479;PMS5003;29067;35.492;-97.520;2023-03-04T07:17:29;4;3;
43479;PMS5003;29067;35.492;-97.520;2023-03-04T07:19:57;5;4;
43479;PMS5003;29067;35.492;-97.520;2023-03-04T07:22:25;5;3;
43479;PMS5003;29067;35.492;-97.520;2023-03-04T07:24:53;6;4;
43479;PMS5003;29067;35.492;-97.520;2023-03-04T07:27:21;3;3;
43479;PMS5003;29067;35.492;-97.520;2023-03-04T07:29:48;5;4;
43479;PMS5003;29067;35.492;-97.520;2023-03-04T07:32:16;3;3;
43479;PMS5003;29067;35.492;-97.520;2023-03-04T07:34:44;4;4;
43479;PMS5003;29067;35.492;-97.520;2023-03-04T07:37:12;4;3;
43479;PMS5003;29067;35.492;-97.520;2023-03-04T07:39:40;3;3;
43479;PMS5003;29067;35.492;-97.520;2023-03-04T07:42:08;4;3;
43479;PMS5003;29067;35.492;-97.520;2023-03-04T07:44:42;3;2;
43479;PMS5003;29067;35.492;-97.520;2023-03-04T07:47:09;3;2;
43479;PMS5003;29067;35.492;-97.520;2023-03-04T07:49:37;3;3;
43479;PMS5003;29067;35.492;-97.520;2023-03-04T07:52:05;3;3;
43479;PMS5003;29067;35.492;-97.520;2023-03-04T07:54:33;2;2;
43479;PMS5003;29067;35.492;-97.520;2023-03-04T07:57:01;4;4;
43479;PMS5003;29067;35.492;-97.520;2023-03-04T07:59:29;3;3;
43479;PMS5003;29067;35.492;-97.520;2023-03-04T08:01:58;3;3;
43479;PMS5003;29067;35.492;-97.520;2023-03-04T08:04:26;3;3;
43479;PMS5003;29067;35.492;-97.520;2023-03-04T08:06:59;3;3;
43479;PMS5003;29067;35.492;-97.520;2023-03-04T08:09:27;2;2;
43479;PMS5003;29067;35.492;-97.520;2023-03-04T08:11:55;2;2;
43479;PMS5003;29067;35.492;-97.520;2023-03-04T08:14:23;3;2;
43479;PMS5003;29067;35.492;-97.520;2023-03-04T08:16:51;4;3;
43479;PMS5003;29067;35.492;-97.520;2023-03-04T08:19:19;3;2;
43479;PMS5003;29067;35.492;-97.520;2023-03-04T08:21:47;1;1;
43479;PMS5003;29067;35.492;-97.520;2023-03-04T08:24:15;2;2;
43479;PMS5003;29067;35.492;-97.520;2023-03-04T08:26:43;4;2;
43479;PMS5003;29067;35.492;-97.520;2023-03-04T08:29:15;3;3;
43479;PMS5003;29067;35.492;-97.520;2023-03-04T08:31:44;3;3;
43479;PMS5003;29067;35.492;-97.520;2023-03-04T08:34:13;3;3;
43479;PMS5003;29067;35.492;-97.520;2023-03-04T08:36:40;2;2;
43479;PMS5003;29067;35.492;-97.520;2023-03-04T08:39:10;2;2;
43479;PMS5003;29067;35.492;-97.520;2023-03-04T08:41:41;3;3;
43479;PMS5003;29067;35.492;-97.520;2023-03-04T08:44:09;2;2;
43479;PMS5003;29067;35.492;-97.520;2023-03-04T08:46:40;3;3;
43479;PMS5003;29067;35.492;-97.520;2023-03-04T08:49:09;4;3;
43479;PMS5003;29067;35.492;-97.520;2023-03-04T08:51:38;4;4;
43479;PMS5003;29067;35.492;-97.520;2023-03-04T08:54:06;3;3;
43479;PMS5003;29067;35.492;-97.520;2023-03-04T08:56:34;3;3;
43479;PMS5003;29067;35.492;-97.520;2023-03-04T08:59:02;4;4;
43479;PMS5003;29067;35.492;-97.520;2023-03-04T09:01:31;4;4;
43479;PMS5003;29067;35.492;-97.520;2023-03-04T09:04:00;2;2;
43479;PMS5003;29067;35.492;-97.520;2023-03-04T09:06:29;3;3;
43479;PMS5003;29067;35.492;-97.520;2023-03-04T09:08:57;3;3;
43479;PMS5003;29067;35.492;-97.520;2023-03-04T09:11:25;4;4;
43479;PMS5003;29067;35.492;-97.520;2023-03-04T09:13:53;4;4;
43479;PMS5003;29067;35.492;-97.520;2023-03-04T09:16:21;3;3;
43479;PMS5003;29067;35.492;-97.520;2023-03-04T09:18:49;3;2;
43479;PMS5003;29067;35.492;-97.520;2023-03-04T09:21:17;5;5;
43479;PMS5003;29067;35.492;-97.520;2023-03-04T09:23:50;4;3;
43479;PMS5003;29067;35.492;-97.520;2023-03-04T09:26:19;4;3;
43479;PMS5003;29067;35.492;-97.520;2023-03-04T09:28:53;3;3;
43479;PMS5003;29067;35.492;-97.520;2023-03-04T09:31:22;4;3;
43479;PMS5003;29067;35.492;-97.520;2023-03-04T09:33:52;2;2;
43479;PMS5003;29067;35.492;-97.520;2023-03-04T09:36:21;4;3;
43479;PMS5003;29067;35.492;-97.520;2023-03-04T09:38:50;4;4;
43479;PMS5003;29067;35.492;-97.520;2023-03-04T09:41:19;4;4;
43479;PMS5003;29067;35.492;-97.520;2023-03-04T09:43:50;3;3;
43479;PMS5003;29067;35.492;-97.520;2023-03-04T09:46:21;4;4;
43479;PMS5003;29067;35.492;-97.520;2023-03-04T09:48:57;4;3;
43479;PMS5003;29067;35.492;-97.520;2023-03-04T09:51:30;3;3;
43479;PMS5003;29067;35.492;-97.520;2023-03-04T09:54:15;4;4;
43479;PMS5003;29067;35.492;-97.520;2023-03-04T09:57:12;4;3;
43479;PMS5003;29067;35.492;-97.520;2023-03-04T09:59:49;5;5;
43479;PMS5003;29067;35.492;-97.520;2023-03-04T10:02:27;6;5;
43479;PMS5003;29067;35.492;-97.520;2023-03-04T10:05:09;16;15;
43479;PMS5003;29067;35.492;-97.520;2023-03-04T10:07:49;29;29;
43479;PMS5003;29067;35.492;-97.520;2023-03-04T10:10:24;56;56;
43479;PMS5003;29067;35.492;-97.520;2023-03-04T10:12:56;80;79;
43479;PMS5003;29067;35.492;-97.520;2023-03-04T10:15:30;105;105;
43479;PMS5003;29067;35.492;-97.520;2023-03-04T10:18:06;17;12;
43479;PMS5003;29067;35.492;-97.520;2023-03-04T10:20:50;11;7;
43479;PMS5003;29067;35.492;-97.520;2023-03-04T10:23:27;39;39;
43479;PMS5003;29067;35.492;-97.520;2023-03-04T10:25:58;25;24;
43479;PMS5003;29067;35.492;-97.520;2023-03-04T10:28:43;21;16;
43479;PMS5003;29067;35.492;-97.520;2023-03-04T10:31:16;11;9;
43479;PMS5003;29067;35.492;-97.520;2023-03-04T10:33:53;23;20;
43479;PMS5003;29067;35.492;-97.520;2023-03-04T10:36:55;27;24;
43479;PMS5003;29067;35.492;-97.520;2023-03-04T10:39:29;14;9;
43479;PMS5003;29067;35.492;-97.520;2023-03-04T10:42:05;16;11;
43479;PMS5003;29067;35.492;-97.520;2023-03-04T10:44:51;27;24;
43479;PMS5003;29067;35.492;-97.520;2023-03-04T10:47:30;24;21;
43479;PMS5003;29067;35.492;-97.520;2023-03-04T10:49:59;10;7;
43479;PMS5003;29067;35.492;-97.520;2023-03-04T10:52:30;21;17;
43479;PMS5003;29067;35.492;-97.520;2023-03-04T10:55:02;8;4;
43479;PMS5003;29067;35.492;-97.520;2023-03-04T10:57:34;23;19;
43479;PMS5003;29067;35.492;-97.520;2023-03-04T11:00:17;20;14;
43479;PMS5003;29067;35.492;-97.520;2023-03-04T11:02:53;11;7;
43479;PMS5003;29067;35.492;-97.520;2023-03-04T11:05:49;19;14;
43479;PMS5003;29067;35.492;-97.520;2023-03-04T11:08:19;28;22;
43479;PMS5003;29067;35.492;-97.520;2023-03-04T11:10:49;57;52;
43479;PMS5003;29067;35.492;-97.520;2023-03-04T11:13:18;52;48;
43479;PMS5003;29067;35.492;-97.520;2023-03-04T11:15:49;233;231;
43479;PMS5003;29067;35.492;-97.520;2023-03-04T11:18:21;274;274;
43479;PMS5003;29067;35.492;-97.520;2023-03-04T11:21:00;244;242;
43479;PMS5003;29067;35.492;-97.520;2023-03-04T11:23:31;212;211;
43479;PMS5003;29067;35.492;-97.520;2023-03-04T11:26:08;225;223;
43479;PMS5003;29067;35.492;-97.520;2023-03-04T11:28:41;201;200;
43479;PMS5003;29067;35.492;-97.520;2023-03-04T11:31:14;43;39;
43479;PMS5003;29067;35.492;-97.520;2023-03-04T11:33:46;27;23;
43479;PMS5003;29067;35.492;-97.520;2023-03-04T11:36:24;23;21;
43479;PMS5003;29067;35.492;-97.520;2023-03-04T11:39:00;26;22;
43479;PMS5003;29067;35.492;-97.520;2023-03-04T11:41:35;27;23;
43479;PMS5003;29067;35.492;-97.520;2023-03-04T11:44:06;80;78;
43479;PMS5003;29067;35.492;-97.520;2023-03-04T11:46:40;80;76;
43479;PMS5003;29067;35.492;-97.520;2023-03-04T11:49:25;78;74;
43479;PMS5003;29067;35.492;-97.520;2023-03-04T11:53:17;78;74;
43479;PMS5003;29067;35.492;-97.520;2023-03-04T11:56:09;67;64;
43479;PMS5003;29067;35.492;-97.520;2023-03-04T11:58:54;82;79;
43479;PMS5003;29067;35.492;-97.520;2023-03-04T12:03:09;20;16;
43479;PMS5003;29067;35.492;-97.520;2023-03-04T12:05:58;14;9;
43479;PMS5003;29067;35.492;-97.520;2023-03-04T12:08:33;72;68;
43479;PMS5003;29067;35.492;-97.520;2023-03-04T12:11:09;21;17;
43479;PMS5003;29067;35.492;-97.520;2023-03-04T12:14:21;11;8;
43479;PMS5003;29067;35.492;-97.520;2023-03-04T12:19:10;16;11;
43479;PMS5003;29067;35.492;-97.520;2023-03-04T12:21:53;15;9;
43479;PMS5003;29067;35.492;-97.520;2023-03-04T12:24:34;31;28;
43479;PMS5003;29067;35.492;-97.520;2023-03-04T12:27:18;11;5;
43479;PMS5003;29067;35.492;-97.520;2023-03-04T12:29:55;21;18;
43479;PMS5003;29067;35.492;-97.520;2023-03-04T12:32:30;12;9;
43479;PMS5003;29067;35.492;-97.520;2023-03-04T12:35:18;16;12;
43479;PMS5003;29067;35.492;-97.520;2023-03-04T12:39:02;17;11;
43479;PMS5003;29067;35.492;-97.520;2023-03-04T12:41:49;22;19;
43479;PMS5003;29067;35.492;-97.520;2023-03-04T12:44:22;3;3;
43479;PMS5003;29067;35.492;-97.520;2023-03-04T12:47:04;3;3;
43479;PMS5003;29067;35.492;-97.520;2023-03-04T12:49:56;3;2;
43479;PMS5003;29067;35.492;-97.520;2023-03-04T12:52:34;4;4;
43479;PMS5003;29067;35.492;-97.520;2023-03-04T12:55:11;3;3;
43479;PMS5003;29067;35.492;-97.520;2023-03-04T12:57:42;4;3;
43479;PMS5003;29067;35.492;-97.520;2023-03-04T13:00:21;2;2;
43479;PMS5003;29067;35.492;-97.520;2023-03-04T13:03:02;3;3;
43479;PMS5003;29067;35.492;-97.520;2023-03-04T13:05:42;5;4;
43479;PMS5003;29067;35.492;-97.520;2023-03-04T13:08:25;3;2;
43479;PMS5003;29067;35.492;-97.520;2023-03-04T13:11:00;3;3;
43479;PMS5003;29067;35.492;-97.520;2023-03-04T13:13:34;3;3;
43479;PMS5003;29067;35.492;-97.520;2023-03-04T13:16:05;3;3;
43479;PMS5003;29067;35.492;-97.520;2023-03-04T13:18:53;3;3;
43479;PMS5003;29067;35.492;-97.520;2023-03-04T13:21:22;3;3;
43479;PMS5003;29067;35.492;-97.520;2023-03-04T13:23:52;2;2;
43479;PMS5003;29067;35.492;-97.520;2023-03-04T13:26:22;4;4;
43479;PMS5003;29067;35.492;-97.520;2023-03-04T13:30:00;5;4;
43479;PMS5003;29067;35.492;-97.520;2023-03-04T13:32:34;3;2;
43479;PMS5003;29067;35.492;-97.520;2023-03-04T13:35:21;4;3;
43479;PMS5003;29067;35.492;-97.520;2023-03-04T13:38:20;5;4;
43479;PMS5003;29067;35.492;-97.520;2023-03-04T13:41:09;3;3;
43479;PMS5003;29067;35.492;-97.520;2023-03-04T13:43:40;3;2;
43479;PMS5003;29067;35.492;-97.520;2023-03-04T13:46:42;3;3;
43479;PMS5003;29067;35.492;-97.520;2023-03-04T13:49:16;3;3;
43479;PMS5003;29067;35.492;-97.520;2023-03-04T13:51:48;10;10;
43479;PMS5003;29067;35.492;-97.520;2023-03-04T13:54:19;8;8;
43479;PMS5003;29067;35.492;-97.520;2023-03-04T13:56:55;3;2;
43479;PMS5003;29067;35.492;-97.520;2023-03-04T13:59:43;4;4;
43479;PMS5003;29067;35.492;-97.520;2023-03-04T14:02:15;4;4;
43479;PMS5003;29067;35.492;-97.520;2023-03-04T14:04:45;4;3;
43479;PMS5003;29067;35.492;-97.520;2023-03-04T14:07:24;4;4;
43479;PMS5003;29067;35.492;-97.520;2023-03-04T14:09:55;3;3;
43479;PMS5003;29067;35.492;-97.520;2023-03-04T14:12:26;3;3;
43479;PMS5003;29067;35.492;-97.520;2023-03-04T14:15:03;3;3;
43479;PMS5003;29067;35.492;-97.520;2023-03-04T14:17:43;4;3;
43479;PMS5003;29067;35.492;-97.520;2023-03-04T14:20:21;3;3;
43479;PMS5003;29067;35.492;-97.520;2023-03-04T14:22:51;11;11;
43479;PMS5003;29067;35.492;-97.520;2023-03-04T14:25:21;7;7;
43479;PMS5003;29067;35.492;-97.520;2023-03-04T14:28:01;6;5;
43479;PMS5003;29067;35.492;-97.520;2023-03-04T14:30:32;4;4;
43479;PMS5003;29067;35.492;-97.520;2023-03-04T14:33:01;4;3;
43479;PMS5003;29067;35.492;-97.520;2023-03-04T14:35:35;4;4;
43479;PMS5003;29067;35.492;-97.520;2023-03-04T14:38:05;4;4;
43479;PMS5003;29067;35.492;-97.520;2023-03-04T14:40:43;3;3;
43479;PMS5003;29067;35.492;-97.520;2023-03-04T14:43:15;5;5;
43479;PMS5003;29067;35.492;-97.520;2023-03-04T14:45:47;4;3;
43479;PMS5003;29067;35.492;-97.520;2023-03-04T14:48:18;4;4;
43479;PMS5003;29067;35.492;-97.520;2023-03-04T14:50:49;5;4;
43479;PMS5003;29067;35.492;-97.520;2023-03-04T14:53:18;3;3;
43479;PMS5003;29067;35.492;-97.520;2023-03-04T14:55:56;4;4;
43479;PMS5003;29067;35.492;-97.520;2023-03-04T14:58:26;4;4;
43479;PMS5003;29067;35.492;-97.520;2023-03-04T15:01:04;5;5;
43479;PMS5003;29067;35.492;-97.520;2023-03-04T15:03:39;4;4;
43479;PMS5003;29067;35.492;-97.520;2023-03-04T15:06:15;3;3;
43479;PMS5003;29067;35.492;-97.520;2023-03-04T15:08:45;4;4;
43479;PMS5003;29067;35.492;-97.520;2023-03-04T15:11:21;4;4;
43479;PMS5003;29067;35.492;-97.520;2023-03-04T15:13:52;3;3;
43479;PMS5003;29067;35.492;-97.520;2023-03-04T15:16:23;4;4;
43479;PMS5003;29067;35.492;-97.520;2023-03-04T15:18:53;5;4;
43479;PMS5003;29067;35.492;-97.520;2023-03-04T15:21:27;3;3;
43479;PMS5003;29067;35.492;-97.520;2023-03-04T15:23:59;7;7;
43479;PMS5003;29067;35.492;-97.520;2023-03-04T15:26:26;13;13;
43479;PMS5003;29067;35.492;-97.520;2023-03-04T15:28:54;12;12;
43479;PMS5003;29067;35.492;-97.520;2023-03-04T15:31:23;8;8;
43479;PMS5003;29067;35.492;-97.520;2023-03-04T15:33:52;3;3;
43479;PMS5003;29067;35.492;-97.520;2023-03-04T15:36:20;6;5;
43479;PMS5003;29067;35.492;-97.520;2023-03-04T15:38:50;10;7;
43479;PMS5003;29067;35.492;-97.520;2023-03-04T15:41:21;4;4;
43479;PMS5003;29067;35.492;-97.520;2023-03-04T15:43:50;6;6;
43479;PMS5003;29067;35.492;-97.520;2023-03-04T15:46:19;6;5;
43479;PMS5003;29067;35.492;-97.520;2023-03-04T15:48:48;6;5;
43479;PMS5003;29067;35.492;-97.520;2023-03-04T15:51:17;5;5;
43479;PMS5003;29067;35.492;-97.520;2023-03-04T15:53:47;7;6;
43479;PMS5003;29067;35.492;-97.520;2023-03-04T15:56:18;7;6;
43479;PMS5003;29067;35.492;-97.520;2023-03-04T15:58:54;6;6;
43479;PMS5003;29067;35.492;-97.520;2023-03-04T16:01:24;7;6;
43479;PMS5003;29067;35.492;-97.520;2023-03-04T16:03:53;7;7;
43479;PMS5003;29067;35.492;-97.520;2023-03-04T16:06:21;5;5;
43479;PMS5003;29067;35.492;-97.520;2023-03-04T16:08:53;7;7;
43479;PMS5003;29067;35.492;-97.520;2023-03-04T16:11:21;7;7;
43479;PMS5003;29067;35.492;-97.520;2023-03-04T16:13:51;8;8;
43479;PMS5003;29067;35.492;-97.520;2023-03-04T16:16:20;8;8;
43479;PMS5003;29067;35.492;-97.520;2023-03-04T16:18:48;7;7;
43479;PMS5003;29067;35.492;-97.520;2023-03-04T16:21:17;6;6;
43479;PMS5003;29067;35.492;-97.520;2023-03-04T16:23:47;8;7;
43479;PMS5003;29067;35.492;-97.520;2023-03-04T16:26:17;7;7;
43479;PMS5003;29067;35.492;-97.520;2023-03-04T16:28:48;10;9;
43479;PMS5003;29067;35.492;-97.520;2023-03-04T16:31:21;7;7;
43479;PMS5003;29067;35.492;-97.520;2023-03-04T16:33:49;9;8;
43479;PMS5003;29067;35.492;-97.520;2023-03-04T16:36:18;9;8;
43479;PMS5003;29067;35.492;-97.520;2023-03-04T16:38:48;11;10;
43479;PMS5003;29067;35.492;-97.520;2023-03-04T16:41:18;10;10;
43479;PMS5003;29067;35.492;-97.520;2023-03-04T16:43:51;8;8;
43479;PMS5003;29067;35.492;-97.520;2023-03-04T16:46:18;11;10;
43479;PMS5003;29067;35.492;-97.520;2023-03-04T16:48:46;8;7;